Time;durP1;ratioP1;P1;durP2;ratioP2;P2;SDS_P1;SDS_P2;PMS_P1;PMS_P2;Temp;Humidity;BMP_temperature;BMP_pressure;BME280_temperature;BME280_humidity;BME280_pressure;Samples;Min_cycle;Max_cycle;Signal;HPM_P1;HPM_P2
2023/07/18 00:01:35;;;;;;;12.10;10.80;;;;;;;24.86;100.00;99364.98;108530;1250;59730;-59
2023/07/18 00:04:03;;;;;;;14.10;11.20;;;;;;;24.84;100.00;99360.67;108487;1253;74067;-60
2023/07/18 00:06:32;;;;;;;14.10;10.20;;;;;;;24.81;100.00;99358.66;108396;1250;69203;-59
2023/07/18 00:08:59;;;;;;;15.90;10.30;;;;;;;24.78;100.00;99355.92;108396;1251;72564;-59
2023/07/18 00:11:27;;;;;;;12.50;11.20;;;;;;;24.78;100.00;99353.26;108444;1250;61565;-61
2023/07/18 00:13:55;;;;;;;13.50;10.60;;;;;;;24.74;100.00;99348.65;108392;1251;59907;-59
2023/07/18 00:16:22;;;;;;;14.90;11.10;;;;;;;24.70;100.00;99346.25;108435;1250;74841;-59
2023/07/18 00:18:50;;;;;;;13.00;10.50;;;;;;;24.67;100.00;99343.33;108575;1250;69502;-59
2023/07/18 00:21:18;;;;;;;12.40;10.90;;;;;;;24.68;100.00;99343.40;108533;1256;72955;-59
2023/07/18 00:23:47;;;;;;;12.80;10.60;;;;;;;24.64;100.00;99341.81;108523;1251;61421;-59
2023/07/18 00:26:15;;;;;;;12.50;10.00;;;;;;;24.61;100.00;99344.66;108593;1250;59329;-59
2023/07/18 00:28:43;;;;;;;12.70;10.00;;;;;;;24.60;100.00;99337.06;108573;1250;73690;-59
2023/07/18 00:31:11;;;;;;;10.60;9.60;;;;;;;24.61;100.00;99333.20;108569;1250;69109;-59
2023/07/18 00:33:38;;;;;;;10.50;9.40;;;;;;;24.64;100.00;99325.95;108575;1251;72438;-59
2023/07/18 00:36:06;;;;;;;10.10;9.10;;;;;;;24.65;100.00;99319.67;108511;1251;61368;-59
2023/07/18 00:38:34;;;;;;;10.20;9.30;;;;;;;24.66;100.00;99314.37;108571;1252;59681;-59
2023/07/18 00:41:04;;;;;;;13.20;9.10;;;;;;;24.69;100.00;99307.61;108536;1252;73546;-59
2023/07/18 00:43:32;;;;;;;10.20;9.00;;;;;;;24.73;100.00;99305.40;108558;1251;69971;-59
2023/07/18 00:46:00;;;;;;;9.30;8.30;;;;;;;24.75;100.00;99301.66;108570;1251;72339;-60
2023/07/18 00:48:28;;;;;;;;;;;;;;;24.75;100.00;99296.41;108506;1256;62402;-60
2023/07/18 00:50:56;;;;;;;10.50;8.70;;;;;;;24.75;100.00;99294.33;108555;1251;60186;-59
2023/07/18 00:53:23;;;;;;;;;;;;;;;24.73;100.00;99289.83;108239;1251;74015;-60
2023/07/18 00:55:53;;;;;;;10.30;8.50;;;;;;;24.71;100.00;99283.66;108392;1251;68094;-59
2023/07/18 00:58:20;;;;;;;10.70;9.10;;;;;;;24.71;100.00;99278.96;108470;1253;72506;-59
2023/07/18 01:00:48;;;;;;;13.50;9.20;;;;;;;24.72;100.00;99272.34;108659;1251;61419;-59
2023/07/18 01:03:17;;;;;;;10.30;8.70;;;;;;;24.76;100.00;99270.50;108497;1253;59882;-58
2023/07/18 01:05:45;;;;;;;9.70;8.80;;;;;;;24.77;100.00;99266.11;108510;1253;72488;-59
2023/07/18 01:08:12;;;;;;;10.80;8.70;;;;;;;24.75;100.00;99264.05;108248;1258;70182;-60
2023/07/18 01:10:40;;;;;;;10.30;9.10;;;;;;;24.75;100.00;99266.65;108431;1253;73303;-59
2023/07/18 01:13:08;;;;;;;9.30;8.50;;;;;;;24.76;100.00;99264.45;108414;1252;61856;-59
2023/07/18 01:15:36;;;;;;;10.80;9.10;;;;;;;24.75;100.00;99261.56;108214;1252;60092;-59
2023/07/18 01:18:09;;;;;;;13.00;9.80;;;;;;;24.72;100.00;99263.61;108403;1252;74167;-60
2023/07/18 01:20:38;;;;;;;10.80;9.80;;;;;;;24.67;100.00;99261.69;108458;1252;69753;-59
2023/07/18 01:23:05;;;;;;;;;;;;;;;24.58;100.00;99257.44;108568;1253;72433;-59
2023/07/18 01:25:34;;;;;;;13.50;9.90;;;;;;;24.55;100.00;99255.45;108569;1253;61425;-59
2023/07/18 01:28:03;;;;;;;;;;;;;;;24.52;100.00;99253.23;108489;1252;59631;-59
2023/07/18 01:30:30;;;;;;;11.60;9.50;;;;;;;24.51;100.00;99253.52;108608;1256;74992;-60
2023/07/18 01:32:58;;;;;;;;;;;;;;;24.48;100.00;99248.79;108568;1251;68038;-59
2023/07/18 01:35:26;;;;;;;10.30;9.30;;;;;;;24.44;100.00;99248.65;108474;1254;72337;-60
2023/07/18 01:37:55;;;;;;;10.10;9.10;;;;;;;24.45;100.00;99246.40;108457;1253;62369;-59
2023/07/18 01:40:23;;;;;;;10.20;9.20;;;;;;;24.44;100.00;99248.62;108380;1251;60622;-59
2023/07/18 01:42:52;;;;;;;10.70;9.70;;;;;;;24.38;100.00;99249.14;108208;1254;73574;-59
2023/07/18 01:45:23;;;;;;;10.90;9.70;;;;;;;24.34;100.00;99249.94;108404;1252;70172;-59
2023/07/18 01:47:51;;;;;;;15.70;10.40;;;;;;;24.31;100.00;99251.14;108193;1253;72391;-59
2023/07/18 01:50:19;;;;;;;11.10;10.10;;;;;;;24.24;100.00;99248.59;108386;1251;62323;-59
2023/07/18 01:52:47;;;;;;;10.80;9.90;;;;;;;24.21;100.00;99252.41;108285;1254;59831;-59
2023/07/18 01:55:15;;;;;;;10.60;9.60;;;;;;;24.20;100.00;99255.15;108532;1251;73782;-59
2023/07/18 01:57:44;;;;;;;;;;;;;;;24.17;100.00;99255.99;108635;1251;69765;-59
2023/07/18 02:00:12;;;;;;;9.80;8.80;;;;;;;24.14;100.00;99257.91;108339;1254;72271;-59
2023/07/18 02:02:40;;;;;;;9.70;8.80;;;;;;;24.11;100.00;99258.12;108544;1256;61484;-60
2023/07/18 02:05:08;;;;;;;13.30;8.80;;;;;;;24.09;100.00;99255.73;108451;1251;60323;-59
2023/07/18 02:07:36;;;;;;;11.50;9.10;;;;;;;24.11;100.00;99255.37;108432;1252;73672;-59
2023/07/18 02:10:04;;;;;;;;;;;;;;;24.11;100.00;99252.58;108176;1252;69129;-60
2023/07/18 02:12:32;;;;;;;13.60;8.80;;;;;;;24.08;100.00;99257.06;108412;1252;71478;-59
2023/07/18 02:15:00;;;;;;;9.80;8.90;;;;;;;24.03;100.00;99252.95;108215;1254;61399;-59
2023/07/18 02:17:27;;;;;;;11.30;9.10;;;;;;;24.00;100.00;99256.33;108212;1253;59881;-59
2023/07/18 02:19:55;;;;;;;11.70;8.60;;;;;;;24.00;100.00;99255.13;108377;1251;73711;-58
2023/07/18 02:22:23;;;;;;;13.20;9.10;;;;;;;23.97;100.00;99251.27;108484;1252;69326;-60
2023/07/18 02:24:50;;;;;;;9.80;8.70;;;;;;;23.95;100.00;99248.25;108560;1254;72421;-58
2023/07/18 02:27:19;;;;;;;;;;;;;;;23.94;100.00;99247.38;108449;1252;61507;-59
2023/07/18 02:29:49;;;;;;;9.70;8.80;;;;;;;23.90;100.00;99242.87;108386;1251;58556;-59
2023/07/18 02:32:17;;;;;;;12.10;8.90;;;;;;;23.90;100.00;99243.13;108511;1253;72728;-59
2023/07/18 02:34:44;;;;;;;;;;;;;;;23.88;100.00;99242.55;108571;1250;69399;-58
2023/07/18 02:37:12;;;;;;;10.10;9.10;;;;;;;23.87;100.00;99242.52;108560;1253;72368;-60
2023/07/18 02:39:44;;;;;;;10.80;8.70;;;;;;;23.86;100.00;99242.20;108540;1250;61471;-59
2023/07/18 02:42:12;;;;;;;9.90;8.10;;;;;;;23.88;100.00;99241.85;108572;1251;59764;-59
2023/07/18 02:44:39;;;;;;;;;;;;;;;23.88;100.00;99247.73;108571;1251;72632;-58
2023/07/18 02:47:08;;;;;;;13.50;9.00;;;;;;;23.83;100.00;99247.89;108525;1254;71174;-59
2023/07/18 02:49:35;;;;;;;10.00;9.10;;;;;;;23.77;100.00;99255.54;108549;1251;72361;-59
2023/07/18 02:52:04;;;;;;;10.60;9.60;;;;;;;23.79;100.00;99270.71;108456;1251;61563;-58
2023/07/18 02:54:31;;;;;;;16.80;8.80;;;;;;;23.75;100.00;99310.83;108484;1251;59664;-58
2023/07/18 02:57:00;;;;;;;12.80;9.20;;;;;;;23.72;100.00;99318.33;108363;1251;72393;-59
2023/07/18 02:59:27;;;;;;;10.80;9.70;;;;;;;23.62;100.00;99312.73;108565;1251;70272;-59
2023/07/18 03:01:57;;;;;;;13.00;10.00;;;;;;;23.60;100.00;99331.36;108556;1250;72308;-59
2023/07/18 03:04:26;;;;;;;12.90;10.10;;;;;;;23.57;100.00;99337.01;108537;1254;61503;-58
2023/07/18 03:06:54;;;;;;;11.90;10.40;;;;;;;23.56;100.00;99331.20;108530;1251;60262;-58
2023/07/18 03:09:22;;;;;;;10.80;9.80;;;;;;;23.56;100.00;99327.79;108458;1250;74056;-59
2023/07/18 03:11:52;;;;;;;11.70;10.10;;;;;;;23.56;100.00;99332.09;108371;1251;70003;-59
2023/07/18 03:14:22;;;;;;;11.50;9.20;;;;;;;23.60;100.00;99332.94;108408;1251;73397;-61
2023/07/18 03:16:51;;;;;;;10.20;9.20;;;;;;;23.63;100.00;99326.73;108367;1251;61389;-59
2023/07/18 03:19:19;;;;;;;11.10;9.90;;;;;;;23.66;100.00;99320.73;108480;1251;60044;-59
2023/07/18 03:21:46;;;;;;;;;;;;;;;23.69;100.00;99319.44;108425;1251;74472;-60
2023/07/18 03:24:14;;;;;;;;;;;;;;;23.76;100.00;99316.70;108527;1251;69146;-58
2023/07/18 03:26:42;;;;;;;10.40;9.00;;;;;;;23.78;100.00;99316.46;108558;1251;72500;-58
2023/07/18 03:29:09;;;;;;;10.70;9.60;;;;;;;23.80;100.00;99316.59;108419;1251;60790;-58
2023/07/18 03:31:39;;;;;;;10.10;9.10;;;;;;;23.83;100.00;99326.65;108560;1250;59756;-58
2023/07/18 03:34:07;;;;;;;10.20;8.70;;;;;;;23.86;100.00;99317.20;108588;1250;74062;-58
2023/07/18 03:36:35;;;;;;;9.30;8.30;;;;;;;23.89;100.00;99323.34;108513;1251;69128;-58
2023/07/18 03:39:05;;;;;;;10.20;8.50;;;;;;;23.90;100.00;99334.38;108593;1251;72495;-58
2023/07/18 03:41:33;;;;;;;11.70;8.20;;;;;;;23.93;100.00;99326.42;108412;1250;62396;-58
2023/07/18 03:44:01;;;;;;;12.00;7.60;;;;;;;23.98;100.00;99322.67;108351;1251;60121;-58
2023/07/18 03:46:28;;;;;;;8.70;7.90;;;;;;;23.96;100.00;99324.29;108385;1251;73700;-59
2023/07/18 03:48:56;;;;;;;10.40;7.90;;;;;;;23.97;100.00;99317.84;108473;1251;69318;-58
2023/07/18 03:51:24;;;;;;;8.70;7.90;;;;;;;24.00;100.00;99311.27;108434;1251;72450;-57
2023/07/18 03:53:55;;;;;;;9.20;7.50;;;;;;;24.05;100.00;99307.55;108406;1254;62772;-58
2023/07/18 03:56:23;;;;;;;7.60;6.90;;;;;;;24.08;100.00;99305.44;108519;1254;59672;-58
2023/07/18 03:58:51;;;;;;;;;;;;;;;24.12;100.00;99304.15;108610;1251;74443;-58
2023/07/18 04:01:19;;;;;;;7.40;6.80;;;;;;;24.15;100.00;99304.60;108535;1250;69621;-59
2023/07/18 04:03:48;;;;;;;7.50;6.50;;;;;;;24.15;100.00;99306.67;108551;1251;71455;-57
2023/07/18 04:06:16;;;;;;;7.50;6.80;;;;;;;24.16;100.00;99309.16;108501;1251;62354;-58
2023/07/18 04:08:44;;;;;;;7.00;6.50;;;;;;;24.16;100.00;99307.19;108522;1251;59677;-59
2023/07/18 04:11:11;;;;;;;6.70;6.10;;;;;;;24.18;100.00;99305.48;108444;1250;73682;-57
2023/07/18 04:13:39;;;;;;;7.00;6.40;;;;;;;24.21;100.00;99306.40;108432;1251;69224;-58
2023/07/18 04:16:07;;;;;;;;;;;;;;;24.24;100.00;99302.52;108458;1251;71430;-57
2023/07/18 04:18:34;;;;;;;7.00;6.10;;;;;;;24.25;100.00;99302.30;108420;1251;61370;-58
2023/07/18 04:21:02;;;;;;;;;;;;;;;24.26;100.00;99296.80;108419;1251;59596;-57
2023/07/18 04:23:30;;;;;;;6.50;5.90;;;;;;;24.25;100.00;99301.77;108565;1251;74518;-58
2023/07/18 04:25:59;;;;;;;6.40;5.80;;;;;;;24.25;100.00;99297.21;108610;1251;68990;-59
2023/07/18 04:28:27;;;;;;;6.70;6.00;;;;;;;24.27;100.00;99293.77;108493;1251;72337;-59
2023/07/18 04:30:55;;;;;;;6.90;6.10;;;;;;;24.30;100.00;99295.59;108548;1252;62385;-57
2023/07/18 04:33:23;;;;;;;6.20;5.70;;;;;;;24.34;100.00;99291.08;108582;1251;59765;-56
2023/07/18 04:35:50;;;;;;;;;;;;;;;24.37;100.00;99292.05;108672;1251;72464;-56
2023/07/18 04:38:18;;;;;;;;;;;;;;;24.38;100.00;99290.01;108521;1254;68363;-56
2023/07/18 04:40:46;;;;;;;5.40;5.00;;;;;;;24.36;100.00;99287.52;108578;1251;71726;-57
2023/07/18 04:43:14;;;;;;;7.30;4.60;;;;;;;24.33;100.00;99277.94;108599;1252;62807;-60
2023/07/18 04:45:44;;;;;;;4.40;4.10;;;;;;;24.33;100.00;99277.79;108486;1251;61111;-57
2023/07/18 04:48:16;;;;;;;4.70;4.30;;;;;;;24.35;100.00;99272.54;108502;1251;73683;-56
2023/07/18 04:50:44;;;;;;;5.80;4.60;;;;;;;24.37;100.00;99269.62;108537;1252;68283;-57
2023/07/18 04:53:12;;;;;;;4.80;4.10;;;;;;;24.40;100.00;99270.56;108493;1253;71270;-56
2023/07/18 04:55:40;;;;;;;6.70;4.30;;;;;;;24.45;100.00;99273.60;108509;1251;61375;-57
2023/07/18 04:58:08;;;;;;;4.90;4.20;;;;;;;24.47;100.00;99275.69;108643;1251;59728;-57
2023/07/18 05:00:36;;;;;;;5.60;3.80;;;;;;;24.47;100.00;99272.73;108591;1251;74538;-57
2023/07/18 05:03:05;;;;;;;4.60;3.60;;;;;;;24.45;100.00;99264.06;108562;1251;69356;-56
2023/07/18 05:05:33;;;;;;;3.90;3.60;;;;;;;24.47;100.00;99266.75;108454;1253;73410;-57
2023/07/18 05:08:01;;;;;;;;;;;;;;;24.49;100.00;99275.16;108490;1253;62055;-56
2023/07/18 05:10:29;;;;;;;4.20;3.80;;;;;;;24.47;100.00;99288.23;108371;1253;59846;-57
2023/07/18 05:12:57;;;;;;;;;;;;;;;24.45;100.00;99300.11;108449;1251;73701;-56
2023/07/18 05:15:24;;;;;;;4.10;3.50;;;;;;;24.44;100.00;99295.27;108471;1251;69135;-57
2023/07/18 05:17:52;;;;;;;3.90;3.60;;;;;;;24.42;100.00;99292.60;108166;1251;73393;-56
2023/07/18 05:20:20;;;;;;;4.70;4.10;;;;;;;24.43;100.00;99292.10;108467;1251;61767;-57
2023/07/18 05:22:48;;;;;;;;;;;;;;;24.46;100.00;99290.33;108482;1251;60347;-56
2023/07/18 05:25:16;;;;;;;5.20;4.10;;;;;;;24.49;100.00;99286.81;108409;1251;73596;-56
2023/07/18 05:27:44;;;;;;;3.60;3.30;;;;;;;24.53;100.00;99288.27;108540;1251;70095;-57
2023/07/18 05:30:16;;;;;;;;;;;;;;;24.56;100.00;99287.60;108449;1252;72336;-57
2023/07/18 05:32:44;;;;;;;5.30;3.70;;;;;;;24.58;100.00;99287.46;108524;1253;62393;-56
2023/07/18 05:35:15;;;;;;;4.10;3.50;;;;;;;24.62;100.00;99286.04;108526;1251;59820;-57
2023/07/18 05:37:43;;;;;;;3.40;3.10;;;;;;;24.65;100.00;99284.36;108550;1251;73734;-56
2023/07/18 05:40:11;;;;;;;4.00;3.50;;;;;;;24.69;100.00;99282.55;108596;1251;70113;-56
2023/07/18 05:42:39;;;;;;;6.40;3.50;;;;;;;24.76;100.00;99281.83;108513;1253;72381;-56
2023/07/18 05:45:08;;;;;;;4.00;3.70;;;;;;;24.81;100.00;99277.09;108334;1253;61880;-56
2023/07/18 05:47:36;;;;;;;3.80;3.40;;;;;;;24.90;100.00;99273.00;108484;1251;59862;-56
2023/07/18 05:50:06;;;;;;;3.40;3.10;;;;;;;24.98;100.00;99266.12;108408;1251;74657;-56
2023/07/18 05:52:34;;;;;;;3.70;3.30;;;;;;;25.05;100.00;99263.20;108452;1252;69607;-56
2023/07/18 05:55:04;;;;;;;3.80;3.10;;;;;;;25.10;100.00;99269.39;108434;1251;73375;-56
2023/07/18 05:57:31;;;;;;;3.60;3.20;;;;;;;25.18;100.00;99282.21;108385;1252;60767;-56
2023/07/18 05:59:59;;;;;;;4.50;4.10;;;;;;;25.21;100.00;99278.77;108435;1251;59799;-58
2023/07/18 06:02:27;;;;;;;4.20;3.80;;;;;;;25.23;100.00;99266.80;108293;1251;74237;-56
2023/07/18 06:04:56;;;;;;;6.00;3.70;;;;;;;25.29;100.00;99254.80;108592;1252;69154;-56
2023/07/18 06:07:23;;;;;;;4.40;4.00;;;;;;;25.32;100.00;99242.73;108483;1251;72781;-56
2023/07/18 06:09:52;;;;;;;8.00;3.50;;;;;;;25.39;100.00;99227.95;108453;1251;61438;-56
2023/07/18 06:12:20;;;;;;;4.20;3.80;;;;;;;25.46;100.00;99235.11;108452;1251;59679;-57
2023/07/18 06:14:48;;;;;;;3.80;3.50;;;;;;;25.51;100.00;99239.00;108325;1251;73697;-56
2023/07/18 06:17:16;;;;;;;3.50;3.20;;;;;;;25.49;100.00;99238.60;108329;1251;69303;-56
2023/07/18 06:19:46;;;;;;;4.50;3.50;;;;;;;25.50;100.00;99240.95;108306;1253;72934;-56
2023/07/18 06:22:14;;;;;;;3.50;3.20;;;;;;;25.55;100.00;99243.56;108422;1252;61397;-57
2023/07/18 06:24:41;;;;;;;3.90;3.50;;;;;;;25.58;100.00;99242.14;108448;1251;60214;-57
2023/07/18 06:27:09;;;;;;;4.20;3.70;;;;;;;25.60;100.00;99245.19;108397;1251;73700;-58
2023/07/18 06:29:37;;;;;;;3.60;3.30;;;;;;;25.63;100.00;99250.06;108412;1253;69220;-56
2023/07/18 06:32:05;;;;;;;3.20;2.90;;;;;;;25.65;100.00;99246.92;108464;1252;72356;-57
2023/07/18 06:34:40;;;;;;;4.80;3.60;;;;;;;25.73;100.00;99255.09;108461;1251;61393;-58
2023/07/18 06:37:09;;;;;;;3.60;3.20;;;;;;;25.78;100.00;99262.22;108524;1251;59820;-57
2023/07/18 06:39:38;;;;;;;4.80;3.70;;;;;;;25.78;100.00;99260.80;108595;1251;74542;-56
2023/07/18 06:42:08;;;;;;;3.70;3.40;;;;;;;25.77;100.00;99251.55;108488;1251;69129;-56
2023/07/18 06:44:37;;;;;;;3.30;3.00;;;;;;;25.84;100.00;99243.25;108402;1252;72863;-57
2023/07/18 06:47:05;;;;;;;3.20;2.90;;;;;;;25.88;100.00;99241.85;108327;1254;61478;-57
2023/07/18 06:49:33;;;;;;;6.00;3.30;;;;;;;25.96;100.00;99236.52;108441;1253;60754;-57
2023/07/18 06:52:00;;;;;;;4.30;3.40;;;;;;;26.05;100.00;99233.66;108406;1251;74651;-57
2023/07/18 06:54:29;;;;;;;3.70;3.40;;;;;;;26.20;100.00;99237.77;108444;1251;69081;-56
2023/07/18 06:56:56;;;;;;;;;;;;;;;26.27;100.00;99240.29;108575;1252;72888;-56
2023/07/18 06:59:24;;;;;;;;;;;;;;;26.28;100.00;99240.79;108519;1251;61545;-57
2023/07/18 07:01:52;;;;;;;3.30;3.10;;;;;;;26.30;100.00;99240.90;108497;1251;60403;-57
2023/07/18 07:04:19;;;;;;;4.10;2.80;;;;;;;26.35;100.00;99237.38;108459;1251;74051;-57
2023/07/18 07:06:47;;;;;;;4.30;3.20;;;;;;;26.42;100.00;99241.65;108495;1251;69183;-57
2023/07/18 07:09:15;;;;;;;4.10;3.20;;;;;;;26.47;100.00;99237.84;108577;1251;72563;-56
2023/07/18 07:11:43;;;;;;;4.80;3.20;;;;;;;26.53;100.00;99243.41;108387;1253;60850;-57
2023/07/18 07:14:11;;;;;;;3.80;3.30;;;;;;;26.55;100.00;99239.98;108359;1251;59651;-57
2023/07/18 07:16:39;;;;;;;3.80;3.40;;;;;;;26.65;100.00;99239.08;108290;1252;74012;-56
2023/07/18 07:19:07;;;;;;;3.00;2.80;;;;;;;26.73;100.00;99244.00;108339;1253;69788;-56
2023/07/18 07:21:35;;;;;;;4.60;3.00;;;;;;;26.79;100.00;99243.89;108445;1251;72498;-55
2023/07/18 07:24:04;;;;;;;4.60;3.30;;;;;;;26.85;100.00;99241.14;108494;1253;61794;-54
2023/07/18 07:26:31;;;;;;;4.80;3.10;;;;;;;26.91;100.00;99237.90;108514;1252;59974;-54
2023/07/18 07:28:59;;;;;;;6.20;3.40;;;;;;;26.96;100.00;99236.95;108528;1251;73768;-54
2023/07/18 07:31:27;;;;;;;3.50;3.20;;;;;;;26.96;100.00;99242.55;108482;1251;69625;-54
2023/07/18 07:33:55;;;;;;;3.30;3.00;;;;;;;26.96;100.00;99241.13;108494;1251;73183;-54
2023/07/18 07:36:22;;;;;;;7.40;3.80;;;;;;;27.01;100.00;99245.73;108430;1253;62382;-54
2023/07/18 07:38:50;;;;;;;4.10;3.50;;;;;;;26.93;100.00;99249.23;108545;1251;59683;-55
2023/07/18 07:41:18;;;;;;;;;;;;;;;26.93;100.00;99249.71;108499;1251;73538;-54
2023/07/18 07:43:46;;;;;;;5.30;3.50;;;;;;;26.90;100.00;99249.03;108485;1251;70128;-57
2023/07/18 07:46:14;;;;;;;;;;;;;;;26.86;100.00;99250.79;108548;1252;72404;-57
2023/07/18 07:48:41;;;;;;;4.10;3.80;;;;;;;26.76;100.00;99257.36;108291;1252;61556;-57
2023/07/18 07:53:43;;;;;;;5.20;3.60;;;;;;;26.29;100.00;99253.96;102014;1289;601534;-56
2023/07/18 07:56:11;;;;;;;5.20;3.40;;;;;;;26.52;100.00;99255.27;104478;1265;63518;-56
2023/07/18 07:58:38;;;;;;;4.10;3.20;;;;;;;26.52;100.00;99258.61;103589;1270;61758;-57
2023/07/18 08:01:06;;;;;;;;;;;;;;;26.43;100.00;99259.11;104361;1266;71833;-56
2023/07/18 08:03:34;;;;;;;3.50;3.30;;;;;;;26.37;100.00;99258.59;103643;1271;69405;-56
2023/07/18 08:06:02;;;;;;;4.60;4.20;;;;;;;26.37;100.00;99259.86;103704;1266;72262;-56
2023/07/18 08:08:31;;;;;;;4.20;3.70;;;;;;;26.38;100.00;99263.70;103999;1269;318986;-56
2023/07/18 08:10:59;;;;;;;3.80;3.50;;;;;;;26.34;100.00;99271.30;104599;1262;59804;-56
2023/07/18 08:13:28;;;;;;;;;;;;;;;26.31;100.00;99259.77;107075;1264;71847;-55
2023/07/18 08:15:55;;;;;;;4.00;3.70;;;;;;;26.20;100.00;99272.55;104811;1266;69099;-54
2023/07/18 08:18:23;;;;;;;3.70;3.50;;;;;;;26.12;100.00;99267.23;104234;1269;72509;-54
2023/07/18 08:20:51;;;;;;;4.10;3.30;;;;;;;26.13;100.00;99263.20;104250;1264;61852;-57
2023/07/18 08:23:19;;;;;;;3.90;3.40;;;;;;;26.08;100.00;99263.58;104353;1263;59819;-57
2023/07/18 08:25:47;;;;;;;4.30;3.00;;;;;;;26.03;100.00;99268.73;104222;1269;73281;-56
2023/07/18 08:28:15;;;;;;;3.70;3.40;;;;;;;25.96;100.00;99278.38;104249;1266;69458;-56
2023/07/18 08:30:43;;;;;;;3.60;3.20;;;;;;;25.92;100.00;99287.30;104134;1266;71094;-56
2023/07/18 08:33:11;;;;;;;3.90;2.80;;;;;;;25.84;100.00;99289.02;103878;1263;61377;-56
2023/07/18 08:35:38;;;;;;;;;;;;;;;25.80;100.00;99291.20;103897;1261;60016;-56
2023/07/18 08:38:06;;;;;;;;;;;;;;;25.75;100.00;99292.20;104229;1262;72018;-55
2023/07/18 08:40:34;;;;;;;3.50;3.20;;;;;;;25.61;100.00;99294.18;103940;1266;69191;-57
2023/07/18 08:43:02;;;;;;;5.00;3.50;;;;;;;25.45;100.00;99300.33;104005;1261;72572;-56
2023/07/18 08:45:31;;;;;;;3.60;3.40;;;;;;;25.32;100.00;99297.22;103937;1262;61433;-56
2023/07/18 08:47:59;;;;;;;6.50;3.30;;;;;;;25.29;100.00;99286.36;103872;1270;60038;-56
2023/07/18 08:50:26;;;;;;;3.90;3.70;;;;;;;25.25;100.00;99278.65;103809;1276;72834;-56
2023/07/18 08:52:54;;;;;;;;;;;;;;;25.25;100.00;99275.60;103925;1263;69438;-56
2023/07/18 08:55:22;;;;;;;3.80;3.40;;;;;;;25.24;100.00;99281.47;103876;1263;72403;-56
2023/07/18 08:57:50;;;;;;;4.30;4.00;;;;;;;25.15;100.00;99289.29;103880;1260;61553;-57
2023/07/18 09:00:20;;;;;;;4.10;3.80;;;;;;;25.01;100.00;99290.39;103898;1266;59784;-56
2023/07/18 09:02:49;;;;;;;4.10;3.60;;;;;;;24.93;100.00;99284.44;103827;1267;72843;-56
2023/07/18 09:05:26;;;;;;;;;;;;;;;24.86;100.00;99285.95;104152;1266;70798;-55
2023/07/18 09:07:56;;;;;;;7.20;4.00;;;;;;;24.80;100.00;99295.95;104087;1261;72465;-55
2023/07/18 09:10:23;;;;;;;11.70;4.40;;;;;;;24.77;100.00;99302.66;104241;1260;61740;-56
2023/07/18 09:12:52;;;;;;;4.80;3.90;;;;;;;24.72;100.00;99305.01;107067;1260;60915;-56
2023/07/18 09:15:20;;;;;;;4.50;4.10;;;;;;;24.66;100.00;99311.88;106821;1262;71746;-56
2023/07/18 09:17:55;;;;;;;6.10;3.80;;;;;;;24.66;100.00;99318.36;104236;1282;69258;-55
2023/07/18 09:20:26;;;;;;;5.10;3.60;;;;;;;24.64;100.00;99322.53;104057;1263;73316;-55
2023/07/18 09:22:56;;;;;;;4.20;3.80;;;;;;;24.63;100.00;99314.16;103971;1266;63017;-54
2023/07/18 09:25:25;;;;;;;8.10;4.30;;;;;;;24.58;100.00;99317.05;104098;1263;60284;-55
2023/07/18 09:27:53;;;;;;;5.90;4.30;;;;;;;24.53;100.00;99319.76;104226;1257;73269;-56
2023/07/18 09:30:42;;;;;;;6.10;5.50;;;;;;;24.52;100.00;99317.34;104369;1266;69036;-57
2023/07/18 09:33:10;;;;;;;6.40;5.10;;;;;;;24.55;100.00;99307.59;104478;1260;72661;-55
2023/07/18 09:35:41;;;;;;;5.60;5.10;;;;;;;24.59;100.00;99305.88;104107;1262;62416;-56
2023/07/18 09:38:08;;;;;;;5.30;4.80;;;;;;;24.60;100.00;99307.00;104092;1261;59742;-55
2023/07/18 09:40:37;;;;;;;6.10;5.60;;;;;;;24.67;100.00;99306.11;104275;1257;72901;-56
2023/07/18 09:43:06;;;;;;;6.40;5.50;;;;;;;24.78;100.00;99302.37;104260;1262;69123;-57
2023/07/18 09:45:33;;;;;;;6.90;5.70;;;;;;;24.90;100.00;99303.98;104205;1258;71135;-57
2023/07/18 09:48:03;;;;;;;6.40;6.00;;;;;;;24.98;100.00;99308.17;104267;1264;61486;-57
2023/07/18 09:50:31;;;;;;;8.70;6.00;;;;;;;25.07;100.00;99301.77;104046;1263;60058;-55
2023/07/18 09:52:59;;;;;;;5.50;5.00;;;;;;;25.20;100.00;99300.35;107618;1257;72864;-56
2023/07/18 09:55:27;;;;;;;7.70;5.60;;;;;;;25.36;100.00;99299.06;105263;1257;69143;-57
2023/07/18 09:57:55;;;;;;;5.60;5.10;;;;;;;25.54;100.00;99303.24;104716;1262;73355;-56
2023/07/18 10:00:24;;;;;;;6.00;5.50;;;;;;;25.77;100.00;99297.89;104485;1257;61758;-55
2023/07/18 10:02:52;;;;;;;5.50;5.10;;;;;;;25.90;100.00;99290.46;104303;1256;60243;-56
2023/07/18 10:05:21;;;;;;;5.60;5.10;;;;;;;26.05;100.00;99284.46;104183;1257;72878;-56
2023/07/18 10:07:48;;;;;;;;;;;;;;;26.20;100.00;99278.48;104188;1264;69140;-56
2023/07/18 10:10:16;;;;;;;5.20;4.80;;;;;;;26.34;100.00;99266.05;104202;1260;72747;-56
2023/07/18 10:12:54;;;;;;;5.60;5.10;;;;;;;26.46;100.00;99268.13;104264;1257;61436;-56
2023/07/18 10:15:22;;;;;;;4.50;4.20;;;;;;;26.70;100.00;99265.60;107703;1257;59622;-55
2023/07/18 10:17:49;;;;;;;5.20;4.20;;;;;;;26.86;100.00;99255.51;104416;1260;72962;-56
2023/07/18 10:20:19;;;;;;;4.60;4.20;;;;;;;27.07;100.00;99254.63;104563;1260;69881;-56
2023/07/18 10:22:50;;;;;;;4.60;4.30;;;;;;;27.30;100.00;99248.17;104429;1257;71569;-59
2023/07/18 10:25:18;;;;;;;4.20;3.90;;;;;;;27.54;100.00;99248.85;104268;1259;62229;-56
2023/07/18 10:27:46;;;;;;;4.20;3.90;;;;;;;27.68;100.00;99245.89;104341;1255;59866;-55
2023/07/18 10:30:18;;;;;;;4.30;3.80;;;;;;;27.79;100.00;99248.71;104265;1263;72934;-56
2023/07/18 10:32:52;;;;;;;3.50;3.30;;;;;;;27.86;100.00;99240.19;104382;1270;69187;-56
2023/07/18 10:35:27;;;;;;;3.50;3.30;;;;;;;27.92;100.00;99242.46;104271;1258;72339;-57
2023/07/18 10:38:06;;;;;;;3.60;3.40;;;;;;;28.05;100.00;99245.25;104311;1257;61607;-56
2023/07/18 10:40:43;;;;;;;3.80;3.50;;;;;;;28.18;100.00;99244.50;104269;1264;59783;-55
2023/07/18 10:43:16;;;;;;;4.60;3.70;;;;;;;28.33;100.00;99243.42;104585;1256;72304;-55
2023/07/18 10:45:45;;;;;;;5.80;3.60;;;;;;;28.41;100.00;99239.48;104289;1272;69213;-56
2023/07/18 10:48:14;;;;;;;4.10;3.70;;;;;;;28.45;100.00;99238.11;104256;1264;72366;-56
2023/07/18 10:50:43;;;;;;;3.90;3.60;;;;;;;28.52;100.00;99236.05;104321;1260;62445;-55
2023/07/18 10:53:16;;;;;;;4.10;3.20;;;;;;;28.52;100.00;99232.19;104485;1254;60070;-55
2023/07/18 10:55:45;;;;;;;4.10;3.30;;;;;;;28.54;100.00;99234.13;104505;1258;72809;-57
2023/07/18 10:58:19;;;;;;;4.70;3.40;;;;;;;28.57;100.00;99235.31;104225;1258;69177;-56
2023/07/18 11:00:48;;;;;;;3.30;3.10;;;;;;;28.61;100.00;99232.04;104523;1260;72499;-57
2023/07/18 11:03:20;;;;;;;3.80;3.50;;;;;;;28.58;100.00;99232.54;104560;1266;61857;-57
2023/07/18 11:05:49;;;;;;;4.50;3.30;;;;;;;28.57;100.00;99229.88;104511;1254;59865;-56
2023/07/18 11:08:28;;;;;;;3.40;3.20;;;;;;;28.50;100.00;99228.16;104502;1260;73654;-57
2023/07/18 11:11:00;;;;;;;3.80;3.40;;;;;;;28.44;100.00;99224.14;104492;1254;69599;-55
2023/07/18 11:13:32;;;;;;;3.50;3.30;;;;;;;28.40;100.00;99223.99;106173;1257;72742;-56
2023/07/18 11:16:10;;;;;;;4.40;3.10;;;;;;;28.41;100.00;99225.46;107813;1254;61621;-56
2023/07/18 11:18:41;;;;;;;4.10;3.70;;;;;;;28.44;100.00;99224.92;104794;1254;60141;-56
2023/07/18 11:21:08;;;;;;;3.70;3.40;;;;;;;28.43;100.00;99225.52;104306;1254;73260;-56
2023/07/18 11:23:37;;;;;;;3.40;3.20;;;;;;;28.53;100.00;99226.91;104251;1262;70162;-56
2023/07/18 11:26:13;;;;;;;3.60;3.30;;;;;;;28.73;100.00;99217.05;104495;1254;72325;-55
2023/07/18 11:28:42;;;;;;;4.10;3.50;;;;;;;28.93;100.00;99211.64;104485;1256;61889;-56
2023/07/18 11:31:27;;;;;;;3.90;3.60;;;;;;;29.16;100.00;99207.02;104462;1259;59713;-55